createdAt,value
2022-12-18T00:00:11.397Z,58.47
2022-12-18T00:03:39.127Z,59.52
2022-12-18T00:06:45.274Z,58.84
2022-12-18T00:09:50.369Z,57.96
2022-12-18T00:12:54.417Z,58.00
2022-12-18T00:16:04.411Z,57.35
2022-12-18T00:19:11.381Z,56.88
2022-12-18T00:22:21.504Z,56.55
2022-12-18T00:25:25.412Z,56.24
2022-12-18T00:28:30.014Z,55.90
2022-12-18T00:31:34.444Z,56.21
2022-12-18T00:34:39.774Z,57.12
2022-12-18T00:37:45.061Z,56.38
2022-12-18T00:40:51.750Z,56.28
2022-12-18T00:43:54.196Z,56.39
2022-12-18T00:46:58.735Z,56.22
2022-12-18T00:50:02.430Z,56.60
2022-12-18T00:53:09.612Z,56.30
2022-12-18T00:56:16.116Z,55.97
2022-12-18T00:59:21.429Z,55.96
2022-12-18T01:02:28.160Z,55.35
2022-12-18T01:05:34.990Z,55.38
2022-12-18T01:08:40.878Z,54.89
2022-12-18T01:11:44.906Z,55.03
2022-12-18T01:14:48.720Z,54.79
2022-12-18T01:17:54.847Z,55.17
2022-12-18T01:20:59.111Z,54.85
2022-12-18T01:24:05.079Z,54.81
2022-12-18T01:27:08.710Z,55.13
2022-12-18T01:30:14.141Z,56.43
2022-12-18T01:33:18.004Z,56.13
2022-12-18T01:36:24.691Z,55.71
2022-12-18T01:39:29.601Z,55.43
2022-12-18T01:42:35.119Z,56.13
2022-12-18T01:45:39.746Z,55.54
2022-12-18T01:48:47.142Z,56.05
2022-12-18T01:51:50.810Z,55.16
2022-12-18T01:54:58.062Z,54.48
2022-12-18T01:58:03.806Z,55.51
2022-12-18T02:01:07.965Z,55.51
2022-12-18T02:04:23.993Z,55.32
2022-12-18T02:07:57.567Z,54.72
2022-12-18T02:11:09.564Z,54.93
2022-12-18T02:14:22.113Z,54.68
2022-12-18T02:17:37.880Z,54.94
2022-12-18T02:20:49.671Z,54.99
2022-12-18T02:24:04.290Z,55.02
2022-12-18T02:27:15.781Z,55.17
2022-12-18T02:30:20.460Z,55.36
2022-12-18T02:33:29.631Z,55.16
2022-12-18T02:36:38.325Z,55.29
2022-12-18T02:39:46.066Z,54.68
2022-12-18T02:42:56.436Z,54.49
2022-12-18T02:46:23.522Z,54.66
2022-12-18T02:49:48.711Z,53.70
2022-12-18T02:53:07.368Z,54.29
2022-12-18T02:56:18.165Z,54.18
2022-12-18T02:59:30.004Z,54.43
2022-12-18T03:02:42.573Z,54.67
2022-12-18T03:05:56.177Z,54.94
2022-12-18T03:09:03.579Z,55.17
2022-12-18T03:12:25.544Z,55.46
2022-12-18T03:15:39.601Z,54.72
2022-12-18T03:18:51.965Z,54.20
2022-12-18T03:21:59.207Z,54.52
2022-12-18T03:25:06.858Z,54.07
2022-12-18T03:28:18.261Z,54.40
2022-12-18T03:31:28.345Z,54.33
2022-12-18T03:34:36.271Z,55.04
2022-12-18T03:37:43.592Z,54.70
2022-12-18T03:40:59.306Z,54.48
2022-12-18T03:44:14.359Z,54.10
2022-12-18T03:47:30.442Z,53.60
2022-12-18T03:50:48.656Z,54.49
2022-12-18T03:54:00.432Z,55.10
2022-12-18T03:57:20.524Z,55.10
2022-12-18T04:00:29.018Z,55.36
2022-12-18T04:03:46.248Z,55.52
2022-12-18T04:06:53.001Z,55.76
2022-12-18T04:10:03.866Z,57.15
2022-12-18T04:13:08.830Z,56.58
2022-12-18T04:16:13.933Z,56.88
2022-12-18T04:19:22.075Z,56.78
2022-12-18T04:22:28.755Z,55.58
2022-12-18T04:25:36.746Z,56.16
2022-12-18T04:28:48.564Z,55.95
2022-12-18T04:31:54.061Z,55.49
2022-12-18T04:35:00.872Z,55.44
2022-12-18T04:38:06.254Z,56.51
2022-12-18T04:41:10.682Z,55.56
2022-12-18T04:44:14.491Z,55.59
2022-12-18T04:47:18.999Z,55.10
2022-12-18T04:50:25.470Z,55.51
2022-12-18T04:53:29.787Z,54.46
2022-12-18T04:56:34.169Z,54.60
2022-12-18T04:59:39.156Z,54.21
2022-12-18T05:02:42.995Z,55.00
2022-12-18T05:05:51.942Z,54.30
2022-12-18T05:08:55.943Z,54.98
2022-12-18T05:12:00.441Z,54.43
2022-12-18T05:15:08.239Z,54.08
2022-12-18T05:18:13.410Z,54.38
2022-12-18T05:21:19.010Z,54.29
2022-12-18T05:24:24.989Z,55.35
2022-12-18T05:27:28.626Z,55.75
2022-12-18T05:30:35.334Z,55.47
2022-12-18T05:33:39.697Z,56.08
2022-12-18T05:36:50.623Z,55.69
2022-12-18T05:39:54.628Z,55.17
2022-12-18T05:42:59.191Z,55.07
2022-12-18T05:46:07.256Z,55.71
2022-12-18T05:49:11.494Z,54.88
2022-12-18T05:52:16.866Z,54.73
2022-12-18T05:55:20.897Z,54.53
2022-12-18T05:58:24.316Z,54.81
2022-12-18T06:01:29.493Z,54.16
2022-12-18T06:04:33.579Z,53.43
2022-12-18T06:07:39.721Z,54.85
2022-12-18T06:10:44.293Z,54.88
2022-12-18T06:13:57.821Z,53.96
2022-12-18T06:17:02.656Z,53.89
2022-12-18T06:20:08.245Z,53.84
2022-12-18T06:23:14.117Z,53.62
2022-12-18T06:26:24.631Z,53.58
2022-12-18T06:29:31.373Z,54.32
2022-12-18T06:32:36.105Z,53.35
2022-12-18T06:35:39.677Z,52.89
2022-12-18T06:38:46.398Z,53.08
2022-12-18T06:41:50.193Z,53.08
2022-12-18T06:44:55.126Z,53.08
2022-12-18T06:47:58.758Z,53.25
2022-12-18T06:51:03.376Z,53.94
2022-12-18T06:54:09.216Z,53.86
2022-12-18T06:57:13.847Z,53.60
2022-12-18T07:00:17.778Z,53.31
2022-12-18T07:03:22.244Z,53.66
2022-12-18T07:06:28.149Z,53.63
2022-12-18T07:09:33.897Z,54.01
2022-12-18T07:12:38.236Z,54.49
2022-12-18T07:15:42.171Z,56.10
2022-12-18T07:18:51.107Z,55.27
2022-12-18T07:21:55.373Z,54.72
2022-12-18T07:25:01.070Z,54.13
2022-12-18T07:28:05.986Z,53.94
2022-12-18T07:31:15.348Z,54.08
2022-12-18T07:34:19.440Z,54.36
2022-12-18T07:37:23.291Z,53.79
2022-12-18T07:40:29.797Z,53.81
2022-12-18T07:43:33.859Z,53.89
2022-12-18T07:46:37.873Z,54.05
2022-12-18T07:49:47.061Z,54.61
2022-12-18T07:52:51.552Z,54.18
2022-12-18T07:56:25.897Z,54.06
2022-12-18T07:59:24.940Z,55.72
2022-12-18T08:02:28.954Z,55.09
2022-12-18T08:05:33.549Z,55.40
2022-12-18T08:08:37.692Z,55.22
2022-12-18T08:11:46.449Z,54.82
2022-12-18T08:14:50.101Z,54.78
2022-12-18T08:17:54.338Z,54.90
2022-12-18T08:20:58.841Z,54.50
2022-12-18T08:24:04.245Z,55.13
2022-12-18T08:27:29.043Z,54.00
2022-12-18T08:30:38.157Z,54.70
2022-12-18T08:33:43.590Z,55.36
2022-12-18T08:36:48.246Z,55.93
2022-12-18T08:39:55.045Z,55.78
2022-12-18T08:43:19.941Z,55.85
2022-12-18T08:46:26.639Z,56.05
2022-12-18T08:49:36.740Z,55.83
2022-12-18T08:52:48.318Z,55.68
2022-12-18T08:55:54.154Z,57.25
2022-12-18T08:59:03.296Z,56.72
2022-12-18T09:02:08.750Z,56.37
2022-12-18T09:05:12.800Z,56.31
2022-12-18T09:08:17.079Z,56.47
2022-12-18T09:11:23.951Z,56.61
2022-12-18T09:14:29.957Z,56.24
2022-12-18T09:17:33.941Z,56.47
2022-12-18T09:20:38.449Z,55.60
2022-12-18T09:23:43.728Z,55.87
2022-12-18T09:26:47.915Z,54.96
2022-12-18T09:29:53.567Z,55.04
2022-12-18T09:32:58.168Z,55.38
2022-12-18T09:36:04.150Z,55.33
2022-12-18T09:39:09.050Z,55.51
2022-12-18T09:42:20.333Z,55.36
2022-12-18T09:45:28.812Z,54.77
2022-12-18T09:48:39.816Z,55.47
2022-12-18T09:51:49.702Z,54.65
2022-12-18T09:54:59.376Z,55.35
2022-12-18T09:58:09.148Z,55.41
2022-12-18T10:01:17.526Z,55.59
2022-12-18T10:04:22.251Z,54.59
2022-12-18T10:07:34.979Z,54.72
2022-12-18T10:10:46.177Z,54.58
2022-12-18T10:13:58.257Z,54.87
2022-12-18T10:17:16.973Z,54.96
2022-12-18T10:20:30.778Z,54.00
2022-12-18T10:23:46.568Z,54.23
2022-12-18T10:26:54.666Z,54.30
2022-12-18T10:30:00.947Z,55.12
2022-12-18T10:33:06.511Z,54.89
2022-12-18T10:36:11.146Z,55.09
2022-12-18T10:39:22.400Z,55.61
2022-12-18T10:42:30.505Z,54.61
2022-12-18T10:45:34.665Z,54.87
2022-12-18T10:48:49.523Z,55.74
2022-12-18T10:51:55.480Z,55.45
2022-12-18T10:55:06.113Z,55.26
2022-12-18T10:58:26.768Z,54.42
2022-12-18T11:01:48.626Z,54.12
2022-12-18T11:04:54.998Z,54.52
2022-12-18T11:08:01.104Z,53.90
2022-12-18T11:11:05.365Z,55.23
2022-12-18T11:14:22.055Z,54.93
2022-12-18T11:17:33.802Z,55.31
2022-12-18T11:20:41.627Z,55.22
2022-12-18T11:23:54.028Z,55.34
2022-12-18T11:26:59.992Z,54.85
2022-12-18T11:30:12.134Z,54.97
2022-12-18T11:33:23.241Z,54.30
2022-12-18T11:36:38.953Z,54.34
2022-12-18T11:39:50.285Z,55.12
2022-12-18T11:43:02.034Z,54.37
2022-12-18T11:46:13.485Z,55.61
2022-12-18T11:49:36.022Z,55.68
2022-12-18T11:53:13.815Z,55.43
2022-12-18T11:56:34.129Z,56.06
2022-12-18T11:59:50.816Z,54.98
2022-12-18T12:03:23.630Z,54.64
2022-12-18T12:06:49.853Z,54.94
2022-12-18T12:10:12.290Z,54.08
2022-12-18T12:13:30.372Z,54.50
2022-12-18T12:16:41.163Z,54.16
2022-12-18T12:20:00.163Z,54.47
2022-12-18T12:23:16.265Z,54.01
2022-12-18T12:26:30.081Z,53.90
2022-12-18T12:29:49.352Z,52.98
2022-12-18T12:33:12.355Z,52.90
2022-12-18T12:36:26.370Z,52.99
2022-12-18T12:39:37.230Z,53.07
2022-12-18T12:43:13.570Z,52.71
2022-12-18T12:46:27.319Z,53.02
2022-12-18T12:49:40.774Z,52.89
2022-12-18T12:52:55.765Z,54.76
2022-12-18T12:56:02.099Z,53.12
2022-12-18T12:59:18.866Z,53.76
2022-12-18T13:02:31.362Z,53.94
2022-12-18T13:05:46.014Z,54.23
2022-12-18T13:08:58.972Z,53.62
2022-12-18T13:12:23.175Z,53.01
2022-12-18T13:15:36.718Z,53.04
2022-12-18T13:18:51.542Z,54.03
2022-12-18T13:21:58.177Z,54.64
2022-12-18T13:25:02.922Z,56.94
2022-12-18T13:28:10.813Z,56.07
2022-12-18T13:31:37.653Z,55.88
2022-12-18T13:34:43.018Z,55.55
2022-12-18T13:37:54.506Z,55.05
2022-12-18T13:41:00.529Z,54.75
2022-12-18T13:44:15.074Z,54.20
2022-12-18T13:47:30.498Z,53.97
2022-12-18T13:50:44.796Z,53.17
2022-12-18T13:53:54.305Z,53.30
2022-12-18T13:56:58.136Z,53.00
2022-12-18T14:00:31.374Z,53.10
2022-12-18T14:03:35.036Z,53.27
2022-12-18T14:06:41.548Z,53.02
2022-12-18T14:09:50.038Z,53.46
2022-12-18T14:13:00.957Z,53.19
2022-12-18T14:16:10.556Z,53.23
2022-12-18T14:19:18.118Z,52.80
2022-12-18T14:22:28.940Z,53.21
2022-12-18T14:25:34.647Z,53.50
2022-12-18T14:28:46.151Z,53.33
2022-12-18T14:32:14.976Z,53.35
2022-12-18T14:35:21.042Z,53.41
2022-12-18T14:38:32.849Z,53.89
2022-12-18T14:41:37.675Z,53.79
2022-12-18T14:45:05.036Z,53.07
2022-12-18T14:48:11.454Z,53.07
2022-12-18T14:51:22.262Z,53.59
2022-12-18T14:54:30.472Z,53.36
2022-12-18T14:57:39.149Z,53.37
2022-12-18T15:00:45.128Z,53.22
2022-12-18T15:03:49.292Z,52.94
2022-12-18T15:07:06.055Z,52.78
2022-12-18T15:10:16.955Z,53.82
2022-12-18T15:13:25.829Z,53.82
2022-12-18T15:16:31.109Z,53.21
2022-12-18T15:19:41.734Z,52.80
2022-12-18T15:22:53.072Z,53.01
2022-12-18T15:26:01.633Z,54.38
2022-12-18T15:29:11.335Z,53.53
2022-12-18T15:32:23.132Z,53.00
2022-12-18T15:35:28.513Z,52.48
2022-12-18T15:38:33.160Z,52.72
2022-12-18T15:41:39.085Z,52.52
2022-12-18T15:44:45.681Z,52.22
2022-12-18T15:47:51.442Z,51.86
2022-12-18T15:50:59.812Z,52.38
2022-12-18T15:54:15.001Z,52.38
2022-12-18T15:57:24.265Z,52.89
2022-12-18T16:00:28.928Z,52.43
2022-12-18T16:03:32.983Z,52.44
2022-12-18T16:07:05.314Z,52.21
2022-12-18T16:10:04.167Z,51.83
2022-12-18T16:13:12.554Z,51.20
2022-12-18T16:16:16.136Z,51.31
2022-12-18T16:19:20.066Z,51.01
2022-12-18T16:22:25.563Z,50.96
2022-12-18T16:25:40.146Z,51.20
2022-12-18T16:28:48.403Z,51.99
2022-12-18T16:31:54.501Z,52.11
2022-12-18T16:35:02.509Z,51.52
2022-12-18T16:38:15.311Z,51.22
2022-12-18T16:41:33.754Z,51.33
2022-12-18T16:44:39.626Z,51.04
2022-12-18T16:47:43.192Z,51.44
2022-12-18T16:50:47.211Z,50.87
2022-12-18T16:53:53.421Z,51.42
2022-12-18T16:56:57.843Z,51.02
2022-12-18T17:00:05.901Z,50.60
2022-12-18T17:03:11.085Z,50.43
2022-12-18T17:06:17.174Z,50.60
2022-12-18T17:09:25.657Z,50.74
2022-12-18T17:12:29.800Z,50.62
2022-12-18T17:15:38.524Z,50.46
2022-12-18T17:18:46.012Z,50.38
2022-12-18T17:21:51.928Z,50.83
2022-12-18T17:24:55.561Z,50.81
2022-12-18T17:28:00.590Z,50.98
2022-12-18T17:31:14.947Z,51.09
2022-12-18T17:34:22.226Z,51.67
2022-12-18T17:37:27.091Z,51.38
2022-12-18T17:40:31.394Z,51.60
2022-12-18T17:43:36.048Z,51.73
2022-12-18T17:46:44.917Z,52.62
2022-12-18T17:49:53.191Z,52.55
2022-12-18T17:53:00.866Z,52.18
2022-12-18T17:56:07.562Z,52.39
2022-12-18T17:59:12.726Z,51.60
2022-12-18T18:02:19.451Z,51.53
2022-12-18T18:05:23.760Z,51.58
2022-12-18T18:08:29.923Z,51.70
2022-12-18T18:11:51.112Z,50.79
2022-12-18T18:14:56.662Z,50.77
2022-12-18T18:18:03.605Z,50.80
2022-12-18T18:21:09.466Z,51.12
2022-12-18T18:24:16.127Z,51.05
2022-12-18T18:27:19.966Z,51.31
2022-12-18T18:30:23.917Z,51.31
2022-12-18T18:33:29.338Z,51.35
2022-12-18T18:36:34.707Z,51.56
2022-12-18T18:39:39.247Z,51.50
2022-12-18T18:42:44.985Z,51.16
2022-12-18T18:45:50.190Z,51.25
2022-12-18T18:48:56.958Z,51.09
2022-12-18T18:52:04.102Z,51.10
2022-12-18T18:55:20.052Z,51.38
2022-12-18T18:58:31.307Z,51.23
2022-12-18T19:01:35.639Z,50.53
2022-12-18T19:04:46.700Z,50.30
2022-12-18T19:07:54.797Z,50.57
2022-12-18T19:11:00.486Z,50.24
2022-12-18T19:14:16.073Z,49.87
2022-12-18T19:17:34.685Z,50.36
2022-12-18T19:21:27.941Z,50.20
2022-12-18T19:24:49.761Z,51.23
2022-12-18T19:28:21.293Z,50.74
2022-12-18T19:31:31.817Z,49.94
2022-12-18T19:34:38.767Z,49.47
2022-12-18T19:37:44.450Z,49.60
2022-12-18T19:40:49.222Z,49.95
2022-12-18T19:43:53.978Z,50.80
2022-12-18T19:47:02.980Z,51.51
2022-12-18T19:50:08.494Z,52.64
2022-12-18T19:53:14.208Z,52.04
2022-12-18T19:56:21.557Z,52.29
2022-12-18T19:59:25.327Z,52.67
2022-12-18T20:02:31.465Z,53.38
2022-12-18T20:05:35.325Z,53.64
2022-12-18T20:08:42.085Z,52.72
2022-12-18T20:11:46.288Z,53.26
2022-12-18T20:14:50.707Z,53.10
2022-12-18T20:17:54.526Z,53.40
2022-12-18T20:20:58.874Z,54.08
2022-12-18T20:24:07.450Z,53.71
2022-12-18T20:27:17.104Z,53.70
2022-12-18T20:30:23.437Z,53.47
2022-12-18T20:33:28.006Z,53.16
2022-12-18T20:36:33.043Z,53.31
2022-12-18T20:39:44.073Z,54.34
2022-12-18T20:42:58.767Z,53.75
2022-12-18T20:46:04.212Z,54.07
2022-12-18T20:49:07.954Z,53.52
2022-12-18T20:52:13.625Z,53.77
2022-12-18T20:55:19.608Z,55.65
2022-12-18T20:58:23.979Z,55.22
2022-12-18T21:01:32.846Z,55.29
2022-12-18T21:04:37.366Z,54.71
2022-12-18T21:07:41.779Z,54.92
2022-12-18T21:10:47.435Z,55.73
2022-12-18T21:13:51.653Z,55.19
2022-12-18T21:16:56.517Z,54.85
2022-12-18T21:20:00.822Z,54.10
2022-12-18T21:23:15.825Z,54.15
2022-12-18T21:26:32.180Z,55.27
2022-12-18T21:29:38.539Z,54.85
2022-12-18T21:33:00.789Z,55.86
2022-12-18T21:36:05.695Z,55.79
2022-12-18T21:39:10.890Z,55.82
2022-12-18T21:42:36.650Z,55.65
2022-12-18T21:45:40.280Z,55.97
2022-12-18T21:48:48.105Z,55.00
2022-12-18T21:51:53.993Z,55.52
2022-12-18T21:55:00.653Z,55.30
2022-12-18T21:58:09.854Z,54.81
2022-12-18T22:01:15.195Z,54.62
2022-12-18T22:04:20.126Z,54.18
2022-12-18T22:07:26.869Z,53.93
2022-12-18T22:10:31.571Z,54.09
2022-12-18T22:13:37.945Z,55.47
2022-12-18T22:16:41.902Z,54.88
2022-12-18T22:19:47.361Z,55.49
2022-12-18T22:22:52.109Z,56.53
2022-12-18T22:25:55.981Z,57.34
2022-12-18T22:29:19.520Z,58.07
2022-12-18T22:32:31.462Z,56.93
2022-12-18T22:35:35.787Z,56.48
2022-12-18T22:38:39.729Z,55.91
2022-12-18T22:41:44.169Z,55.65
2022-12-18T22:44:50.371Z,53.93
2022-12-18T22:47:55.003Z,55.10
2022-12-18T22:50:59.496Z,56.69
2022-12-18T22:54:03.479Z,57.78
2022-12-18T22:57:08.135Z,56.59
2022-12-18T23:00:15.747Z,56.03
2022-12-18T23:03:21.649Z,56.04
2022-12-18T23:06:27.639Z,55.70
2022-12-18T23:09:32.486Z,55.54
2022-12-18T23:12:37.624Z,55.88
2022-12-18T23:15:48.986Z,56.08
2022-12-18T23:18:56.974Z,55.71
2022-12-18T23:22:03.503Z,55.89
2022-12-18T23:25:10.988Z,55.38
2022-12-18T23:28:15.081Z,54.68
2022-12-18T23:31:23.646Z,54.66
2022-12-18T23:34:27.929Z,53.87
2022-12-18T23:37:57.464Z,54.17
2022-12-18T23:40:56.496Z,53.61
2022-12-18T23:44:03.402Z,53.32
2022-12-18T23:47:08.730Z,52.42
2022-12-18T23:50:12.563Z,52.73
2022-12-18T23:53:16.896Z,53.57
2022-12-18T23:56:21.304Z,52.46
2022-12-18T23:59:25.716Z,52.56
